sensor_id;sensor_type;location;lat;lon;timestamp;pressure;altitude;pressure_sealevel;temperature;humidity
40982;BME280;26708;50.304;19.028;2024-03-17T00:01:56;98429.09;;;9.75;60.91
40982;BME280;26708;50.304;19.028;2024-03-17T00:03:57;98348.13;;;9.29;60.42
40982;BME280;26708;50.304;19.028;2024-03-17T00:06:03;98512.66;;;10.22;60.51
40982;BME280;26708;50.304;19.028;2024-03-17T00:08:06;98438.66;;;9.72;60.81
40982;BME280;26708;50.304;19.028;2024-03-17T00:10:10;98523.13;;;10.23;60.47
40982;BME280;26708;50.304;19.028;2024-03-17T00:12:16;98536.19;;;10.23;60.62
40982;BME280;26708;50.304;19.028;2024-03-17T00:14:20;98523.13;;;10.25;60.51
40982;BME280;26708;50.304;19.028;2024-03-17T00:16:22;98468.28;;;9.90;60.25
40982;BME280;26708;50.304;19.028;2024-03-17T00:18:28;98515.28;;;10.14;60.53
40982;BME280;26708;50.304;19.028;2024-03-17T00:20:30;98530.09;;;10.15;60.51
40982;BME280;26708;50.304;19.028;2024-03-17T00:22:35;98504.84;;;9.98;60.66
40982;BME280;26708;50.304;19.028;2024-03-17T00:24:43;98534.47;;;10.13;61.08
40982;BME280;26708;50.304;19.028;2024-03-17T00:26:48;98458.66;;;9.62;61.27
40982;BME280;26708;50.304;19.028;2024-03-17T00:28:52;98519.69;;;9.84;61.01
40982;BME280;26708;50.304;19.028;2024-03-17T00:30:58;98566.75;;;9.99;58.81
40982;BME280;26708;50.304;19.028;2024-03-17T00:33:00;98568.47;;;9.73;57.98
40982;BME280;26708;50.304;19.028;2024-03-17T00:35:06;98556.19;;;9.42;58.21
40982;BME280;26708;50.304;19.028;2024-03-17T00:37:09;98571.00;;;9.35;58.63
40982;BME280;26708;50.304;19.028;2024-03-17T00:39:14;98564.84;;;9.14;59.01
40982;BME280;26708;50.304;19.028;2024-03-17T00:41:15;98471.47;;;8.35;58.94
40982;BME280;26708;50.304;19.028;2024-03-17T00:43:21;98577.88;;;9.03;59.56
40982;BME280;26708;50.304;19.028;2024-03-17T00:45:25;98591.75;;;8.99;59.91
40982;BME280;26708;50.304;19.028;2024-03-17T00:47:30;98581.25;;;8.89;59.59
40982;BME280;26708;50.304;19.028;2024-03-17T00:49:32;98597.78;;;8.85;59.88
40982;BME280;26708;50.304;19.028;2024-03-17T00:51:37;98459.97;;;8.00;59.76
40982;BME280;26708;50.304;19.028;2024-03-17T00:53:39;98595.13;;;8.71;60.02
40982;BME280;26708;50.304;19.028;2024-03-17T00:55:51;98500.84;;;8.11;60.24
40982;BME280;26708;50.304;19.028;2024-03-17T00:57:53;98596.81;;;8.63;60.00
40982;BME280;26708;50.304;19.028;2024-03-17T00:59:57;98458.91;;;7.71;59.98
40982;BME280;26708;50.304;19.028;2024-03-17T01:02:03;98602.03;;;8.63;59.92
40982;BME280;26708;50.304;19.028;2024-03-17T01:04:07;98600.28;;;8.67;59.94
40982;BME280;26708;50.304;19.028;2024-03-17T01:06:09;98488.69;;;8.13;59.95
40982;BME280;26708;50.304;19.028;2024-03-17T01:08:16;98605.59;;;8.80;59.34
40982;BME280;26708;50.304;19.028;2024-03-17T01:10:18;98576.88;;;8.74;59.39
40982;BME280;26708;50.304;19.028;2024-03-17T01:12:23;98501.03;;;8.32;58.73
40982;BME280;26708;50.304;19.028;2024-03-17T01:14:26;98597.81;;;8.91;58.67
40982;BME280;26708;50.304;19.028;2024-03-17T01:16:31;98556.81;;;8.70;58.91
40982;BME280;26708;50.304;19.028;2024-03-17T01:18:36;98455.69;;;8.12;59.14
40982;BME280;26708;50.304;19.028;2024-03-17T01:20:41;98569.09;;;8.86;58.78
40982;BME280;26708;50.304;19.028;2024-03-17T01:22:44;98603.09;;;9.07;58.60
40982;BME280;26708;50.304;19.028;2024-03-17T01:24:49;98566.50;;;8.91;58.70
40982;BME280;26708;50.304;19.028;2024-03-17T01:26:51;98509.81;;;8.57;58.38
40982;BME280;26708;50.304;19.028;2024-03-17T01:28:56;98550.81;;;8.80;58.48
40982;BME280;26708;50.304;19.028;2024-03-17T01:31:00;98604.00;;;9.14;58.41
40982;BME280;26708;50.304;19.028;2024-03-17T01:33:05;98599.63;;;9.07;58.25
40982;BME280;26708;50.304;19.028;2024-03-17T01:35:10;98590.03;;;9.07;58.51
40982;BME280;26708;50.304;19.028;2024-03-17T01:37:15;98488.03;;;8.46;58.76
40982;BME280;26708;50.304;19.028;2024-03-17T01:39:17;98483.66;;;8.39;58.76
40982;BME280;26708;50.304;19.028;2024-03-17T01:41:22;98565.66;;;8.96;59.06
40982;BME280;26708;50.304;19.028;2024-03-17T01:43:24;98442.69;;;8.21;58.60
40982;BME280;26708;50.304;19.028;2024-03-17T01:45:30;98606.56;;;9.02;59.29
40982;BME280;26708;50.304;19.028;2024-03-17T01:47:33;98459.09;;;8.04;58.94
40982;BME280;26708;50.304;19.028;2024-03-17T01:49:38;98402.47;;;7.67;59.31
40982;BME280;26708;50.304;19.028;2024-03-17T01:51:44;98576.00;;;8.78;59.38
40982;BME280;26708;50.304;19.028;2024-03-17T01:53:52;98542.81;;;8.49;59.25
40982;BME280;26708;50.304;19.028;2024-03-17T01:55:57;98473.88;;;8.03;59.87
40982;BME280;26708;50.304;19.028;2024-03-17T01:58:05;98592.56;;;8.85;59.55
40982;BME280;26708;50.304;19.028;2024-03-17T02:00:09;98580.34;;;8.76;59.49
40982;BME280;26708;50.304;19.028;2024-03-17T02:02:15;98600.41;;;8.89;58.70
40982;BME280;26708;50.304;19.028;2024-03-17T02:04:18;98562.81;;;8.47;58.58
40982;BME280;26708;50.304;19.028;2024-03-17T02:06:23;98541.91;;;8.41;58.68
40982;BME280;26708;50.304;19.028;2024-03-17T02:08:28;98510.41;;;8.09;58.76
40982;BME280;26708;50.304;19.028;2024-03-17T02:10:34;98630.75;;;8.74;58.24
40982;BME280;26708;50.304;19.028;2024-03-17T02:12:36;98560.91;;;8.26;58.75
40982;BME280;26708;50.304;19.028;2024-03-17T02:14:45;98621.22;;;8.74;59.07
40982;BME280;26708;50.304;19.028;2024-03-17T02:16:53;98396.09;;;7.31;58.61
40982;BME280;26708;50.304;19.028;2024-03-17T02:18:58;98414.38;;;7.37;58.67
40982;BME280;26708;50.304;19.028;2024-03-17T02:21:01;98430.06;;;7.44;58.55
40982;BME280;26708;50.304;19.028;2024-03-17T02:23:11;98572.19;;;8.27;58.71
40982;BME280;26708;50.304;19.028;2024-03-17T02:25:13;98652.41;;;8.56;58.45
40982;BME280;26708;50.304;19.028;2024-03-17T02:27:17;98465.69;;;7.50;58.62
40982;BME280;26708;50.304;19.028;2024-03-17T02:29:21;98582.69;;;8.31;58.38
40982;BME280;26708;50.304;19.028;2024-03-17T02:31:25;98609.72;;;8.42;58.34
40982;BME280;26708;50.304;19.028;2024-03-17T02:33:27;98625.41;;;8.47;58.45
40982;BME280;26708;50.304;19.028;2024-03-17T02:35:32;98576.50;;;8.17;58.47
40982;BME280;26708;50.304;19.028;2024-03-17T02:37:34;98457.13;;;7.63;58.55
40982;BME280;26708;50.304;19.028;2024-03-17T02:39:42;98626.34;;;8.56;58.40
40982;BME280;26708;50.304;19.028;2024-03-17T02:41:47;98423.00;;;7.28;58.56
40982;BME280;26708;50.304;19.028;2024-03-17T02:43:52;98628.94;;;8.59;58.46
40982;BME280;26708;50.304;19.028;2024-03-17T02:45:57;98584.41;;;8.29;58.54
40982;BME280;26708;50.304;19.028;2024-03-17T02:48:04;98596.63;;;8.39;58.63
40982;BME280;26708;50.304;19.028;2024-03-17T02:50:09;98594.09;;;8.44;57.87
40982;BME280;26708;50.304;19.028;2024-03-17T02:52:14;98496.34;;;7.87;57.84
40982;BME280;26708;50.304;19.028;2024-03-17T02:54:20;98508.56;;;7.92;57.59
40982;BME280;26708;50.304;19.028;2024-03-17T02:56:25;98512.03;;;7.91;57.60
40982;BME280;26708;50.304;19.028;2024-03-17T02:58:29;98540.72;;;7.98;57.13
40982;BME280;26708;50.304;19.028;2024-03-17T03:00:32;98458.75;;;7.49;56.66
40982;BME280;26708;50.304;19.028;2024-03-17T03:02:37;98496.97;;;7.57;56.81
40982;BME280;26708;50.304;19.028;2024-03-17T03:04:42;98627.06;;;8.37;56.18
40982;BME280;26708;50.304;19.028;2024-03-17T03:06:47;98649.69;;;8.43;56.24
40982;BME280;26708;50.304;19.028;2024-03-17T03:08:50;98633.13;;;8.33;56.25
40982;BME280;26708;50.304;19.028;2024-03-17T03:10:55;98592.75;;;7.88;56.04
40982;BME280;26708;50.304;19.028;2024-03-17T03:13:04;98637.34;;;8.21;55.62
40982;BME280;26708;50.304;19.028;2024-03-17T03:15:09;98484.63;;;7.29;55.52
40982;BME280;26708;50.304;19.028;2024-03-17T03:17:14;98607.47;;;7.82;55.55
40982;BME280;26708;50.304;19.028;2024-03-17T03:19:20;98658.94;;;8.05;55.68
40982;BME280;26708;50.304;19.028;2024-03-17T03:21:22;98485.16;;;7.00;55.22
40982;BME280;26708;50.304;19.028;2024-03-17T03:23:27;98635.34;;;7.93;54.87
40982;BME280;26708;50.304;19.028;2024-03-17T03:25:33;98588.97;;;7.53;54.73
40982;BME280;26708;50.304;19.028;2024-03-17T03:27:38;98496.22;;;6.79;54.71
40982;BME280;26708;50.304;19.028;2024-03-17T03:30:11;98600.19;;;7.48;54.34
40982;BME280;26708;50.304;19.028;2024-03-17T03:32:17;98688.47;;;8.07;54.46
40982;BME280;26708;50.304;19.028;2024-03-17T03:34:22;98651.72;;;7.79;54.64
40982;BME280;26708;50.304;19.028;2024-03-17T03:36:27;98575.63;;;7.23;54.29
40982;BME280;26708;50.304;19.028;2024-03-17T03:38:31;98698.03;;;8.05;54.16
40982;BME280;26708;50.304;19.028;2024-03-17T03:40:35;98658.63;;;7.74;53.86
40982;BME280;26708;50.304;19.028;2024-03-17T03:42:40;98644.59;;;7.61;53.69
40982;BME280;26708;50.304;19.028;2024-03-17T03:44:46;98737.81;;;7.90;53.80
40982;BME280;26708;50.304;19.028;2024-03-17T03:46:55;98546.44;;;6.74;53.19
40982;BME280;26708;50.304;19.028;2024-03-17T03:49:14;98710.78;;;7.80;53.52
40982;BME280;26708;50.304;19.028;2024-03-17T03:51:21;98720.28;;;7.77;53.71
40982;BME280;26708;50.304;19.028;2024-03-17T03:53:26;98542.78;;;6.61;53.62
40982;BME280;26708;50.304;19.028;2024-03-17T03:55:28;98683.59;;;7.55;53.84
40982;BME280;26708;50.304;19.028;2024-03-17T03:57:34;98624.78;;;6.98;53.18
40982;BME280;26708;50.304;19.028;2024-03-17T03:59:36;98693.06;;;7.49;53.32
40982;BME280;26708;50.304;19.028;2024-03-17T04:01:40;98552.34;;;6.62;53.10
40982;BME280;26708;50.304;19.028;2024-03-17T04:03:53;98577.56;;;6.69;53.23
40982;BME280;26708;50.304;19.028;2024-03-17T04:06:08;98620.25;;;6.85;53.40
40982;BME280;26708;50.304;19.028;2024-03-17T04:08:19;98506.59;;;6.11;53.41
40982;BME280;26708;50.304;19.028;2024-03-17T04:10:42;98463.91;;;5.92;52.70
40982;BME280;26708;50.304;19.028;2024-03-17T04:12:48;98512.66;;;6.11;52.72
40982;BME280;26708;50.304;19.028;2024-03-17T04:15:12;98738.16;;;7.43;52.66
40982;BME280;26708;50.304;19.028;2024-03-17T04:17:27;98503.97;;;6.08;52.49
40982;BME280;26708;50.304;19.028;2024-03-17T04:19:41;98487.03;;;5.74;52.40
40982;BME280;26708;50.304;19.028;2024-03-17T04:22:04;98479.06;;;5.64;52.40
40982;BME280;26708;50.304;19.028;2024-03-17T04:24:15;98479.09;;;5.67;52.67
40982;BME280;26708;50.304;19.028;2024-03-17T04:26:23;98477.94;;;5.48;51.97
40982;BME280;26708;50.304;19.028;2024-03-17T04:28:31;98566.28;;;6.06;52.06
40982;BME280;26708;50.304;19.028;2024-03-17T04:30:42;98540.78;;;5.83;51.95
40982;BME280;26708;50.304;19.028;2024-03-17T04:32:47;98744.56;;;7.07;51.37
40982;BME280;26708;50.304;19.028;2024-03-17T04:35:00;98588.03;;;6.14;51.22
40982;BME280;26708;50.304;19.028;2024-03-17T04:37:07;98464.50;;;5.18;51.03
40982;BME280;26708;50.304;19.028;2024-03-17T04:39:12;98626.94;;;6.10;50.92
40982;BME280;26708;50.304;19.028;2024-03-17T04:41:17;98612.03;;;5.98;51.17
40982;BME280;26708;50.304;19.028;2024-03-17T04:43:23;98553.38;;;5.59;50.85
40982;BME280;26708;50.304;19.028;2024-03-17T04:45:28;98682.13;;;6.49;50.97
40982;BME280;26708;50.304;19.028;2024-03-17T04:47:33;98544.75;;;5.60;51.03
40982;BME280;26708;50.304;19.028;2024-03-17T04:49:38;98623.38;;;6.05;50.89
40982;BME280;26708;50.304;19.028;2024-03-17T04:51:46;98597.06;;;5.84;50.93
40982;BME280;26708;50.304;19.028;2024-03-17T04:53:51;98711.44;;;6.40;51.21
40982;BME280;26708;50.304;19.028;2024-03-17T04:56:01;98728.34;;;6.68;51.27
40982;BME280;26708;50.304;19.028;2024-03-17T04:58:06;98757.16;;;6.78;51.28
40982;BME280;26708;50.304;19.028;2024-03-17T05:00:12;98644.91;;;5.98;51.56
40982;BME280;26708;50.304;19.028;2024-03-17T05:02:20;98599.50;;;5.73;51.51
40982;BME280;26708;50.304;19.028;2024-03-17T05:04:25;98724.84;;;6.66;51.73
40982;BME280;26708;50.304;19.028;2024-03-17T05:06:30;98699.25;;;6.38;52.10
40982;BME280;26708;50.304;19.028;2024-03-17T05:08:35;98686.13;;;6.29;52.36
40982;BME280;26708;50.304;19.028;2024-03-17T05:10:40;98658.22;;;6.17;52.52
40982;BME280;26708;50.304;19.028;2024-03-17T05:12:45;98730.22;;;6.75;52.54
40982;BME280;26708;50.304;19.028;2024-03-17T05:14:50;98761.75;;;6.96;53.10
40982;BME280;26708;50.304;19.028;2024-03-17T05:16:52;98724.94;;;6.72;53.27
40982;BME280;26708;50.304;19.028;2024-03-17T05:18:56;98773.94;;;7.00;53.35
40982;BME280;26708;50.304;19.028;2024-03-17T05:21:03;98773.19;;;7.07;53.45
40982;BME280;26708;50.304;19.028;2024-03-17T05:23:10;98733.88;;;6.87;53.59
40982;BME280;26708;50.304;19.028;2024-03-17T05:25:14;98645.75;;;6.49;53.72
40982;BME280;26708;50.304;19.028;2024-03-17T05:27:20;98555.81;;;6.02;53.83
40982;BME280;26708;50.304;19.028;2024-03-17T05:29:24;98776.22;;;7.37;53.72
40982;BME280;26708;50.304;19.028;2024-03-17T05:31:29;98585.84;;;6.40;53.54
40982;BME280;26708;50.304;19.028;2024-03-17T05:33:34;98779.06;;;7.53;53.30
40982;BME280;26708;50.304;19.028;2024-03-17T05:35:36;98786.06;;;7.59;53.13
40982;BME280;26708;50.304;19.028;2024-03-17T05:37:41;98557.91;;;6.27;53.16
40982;BME280;26708;50.304;19.028;2024-03-17T05:39:46;98779.16;;;7.62;53.13
40982;BME280;26708;50.304;19.028;2024-03-17T05:41:54;98537.03;;;6.21;52.98
40982;BME280;26708;50.304;19.028;2024-03-17T05:43:58;98782.66;;;7.63;53.05
40982;BME280;26708;50.304;19.028;2024-03-17T05:46:04;98673.28;;;6.94;52.88
40982;BME280;26708;50.304;19.028;2024-03-17T05:48:10;98641.81;;;6.75;53.00
40982;BME280;26708;50.304;19.028;2024-03-17T05:50:11;98657.41;;;6.75;52.57
40982;BME280;26708;50.304;19.028;2024-03-17T05:52:17;98751.72;;;7.23;52.22
40982;BME280;26708;50.304;19.028;2024-03-17T05:54:20;98633.50;;;6.42;51.87
40982;BME280;26708;50.304;19.028;2024-03-17T05:56:27;98796.28;;;7.44;52.26
40982;BME280;26708;50.304;19.028;2024-03-17T05:58:32;98795.47;;;7.48;52.46
40982;BME280;26708;50.304;19.028;2024-03-17T06:00:38;98690.63;;;6.94;51.95
40982;BME280;26708;50.304;19.028;2024-03-17T06:02:40;98797.38;;;7.61;52.24
40982;BME280;26708;50.304;19.028;2024-03-17T06:04:46;98709.97;;;7.14;52.05
40982;BME280;26708;50.304;19.028;2024-03-17T06:06:50;98806.22;;;7.72;52.18
40982;BME280;26708;50.304;19.028;2024-03-17T06:08:55;98807.25;;;7.87;52.15
40982;BME280;26708;50.304;19.028;2024-03-17T06:11:00;98782.84;;;7.79;51.21
40982;BME280;26708;50.304;19.028;2024-03-17T06:13:05;98802.19;;;8.00;50.98
40982;BME280;26708;50.304;19.028;2024-03-17T06:15:15;98643.03;;;7.02;50.07
40982;BME280;26708;50.304;19.028;2024-03-17T06:17:18;98812.72;;;8.08;50.04
40982;BME280;26708;50.304;19.028;2024-03-17T06:19:23;98652.81;;;7.20;48.97
40982;BME280;26708;50.304;19.028;2024-03-17T06:21:27;98784.00;;;8.03;49.26
40982;BME280;26708;50.304;19.028;2024-03-17T06:23:32;98818.19;;;8.27;49.24
40982;BME280;26708;50.304;19.028;2024-03-17T06:25:41;98679.97;;;7.40;48.06
40982;BME280;26708;50.304;19.028;2024-03-17T06:27:46;98796.47;;;8.31;47.59
40982;BME280;26708;50.304;19.028;2024-03-17T06:29:51;98854.06;;;8.49;47.30
40982;BME280;26708;50.304;19.028;2024-03-17T06:31:59;98823.63;;;8.48;47.46
40982;BME280;26708;50.304;19.028;2024-03-17T06:34:03;98670.50;;;7.48;47.27
40982;BME280;26708;50.304;19.028;2024-03-17T06:36:09;98823.63;;;8.50;47.23
40982;BME280;26708;50.304;19.028;2024-03-17T06:38:11;98810.53;;;8.45;46.96
40982;BME280;26708;50.304;19.028;2024-03-17T06:40:16;98580.53;;;6.98;46.74
40982;BME280;26708;50.304;19.028;2024-03-17T06:42:35;98819.31;;;8.53;46.80
40982;BME280;26708;50.304;19.028;2024-03-17T06:44:44;98745.94;;;8.20;46.76
40982;BME280;26708;50.304;19.028;2024-03-17T06:46:49;98586.97;;;7.30;47.03
40982;BME280;26708;50.304;19.028;2024-03-17T06:48:57;98813.59;;;8.95;46.59
40982;BME280;26708;50.304;19.028;2024-03-17T06:51:02;98780.53;;;8.94;46.66
40982;BME280;26708;50.304;19.028;2024-03-17T06:53:09;98813.78;;;9.19;45.88
40982;BME280;26708;50.304;19.028;2024-03-17T06:55:21;98816.41;;;9.20;44.86
40982;BME280;26708;50.304;19.028;2024-03-17T06:57:32;98540.53;;;7.72;45.46
40982;BME280;26708;50.304;19.028;2024-03-17T06:59:35;98560.69;;;7.99;45.47
40982;BME280;26708;50.304;19.028;2024-03-17T07:01:41;98664.66;;;8.69;45.15
40982;BME280;26708;50.304;19.028;2024-03-17T07:03:46;98691.84;;;9.04;44.66
40982;BME280;26708;50.304;19.028;2024-03-17T07:05:55;98845.63;;;10.03;44.23
40982;BME280;26708;50.304;19.028;2024-03-17T07:08:01;98802.88;;;9.87;43.40
40982;BME280;26708;50.304;19.028;2024-03-17T07:10:07;98728.56;;;9.34;42.94
40982;BME280;26708;50.304;19.028;2024-03-17T07:12:13;98829.09;;;10.08;42.70
40982;BME280;26708;50.304;19.028;2024-03-17T07:14:18;98664.94;;;9.16;42.50
40982;BME280;26708;50.304;19.028;2024-03-17T07:16:22;98726.91;;;9.59;42.33
40982;BME280;26708;50.304;19.028;2024-03-17T07:18:28;98833.47;;;10.14;42.44
40982;BME280;26708;50.304;19.028;2024-03-17T07:20:33;98820.31;;;9.94;42.86
40982;BME280;26708;50.304;19.028;2024-03-17T07:22:40;98829.13;;;10.14;42.34
40982;BME280;26708;50.304;19.028;2024-03-17T07:24:44;98792.44;;;9.93;42.52
40982;BME280;26708;50.304;19.028;2024-03-17T07:26:51;98771.47;;;9.81;42.87
40982;BME280;26708;50.304;19.028;2024-03-17T07:28:56;98802.91;;;9.92;42.92
40982;BME280;26708;50.304;19.028;2024-03-17T07:31:00;98741.84;;;9.76;42.30
40982;BME280;26708;50.304;19.028;2024-03-17T07:33:07;98837.91;;;10.40;41.92
40982;BME280;26708;50.304;19.028;2024-03-17T07:35:08;98835.28;;;10.33;41.85
40982;BME280;26708;50.304;19.028;2024-03-17T07:37:13;98837.91;;;10.34;41.72
40982;BME280;26708;50.304;19.028;2024-03-17T07:39:21;98834.41;;;10.32;41.26
40982;BME280;26708;50.304;19.028;2024-03-17T07:41:25;98763.63;;;9.77;41.18
40982;BME280;26708;50.304;19.028;2024-03-17T07:43:32;98788.06;;;9.88;41.27
40982;BME280;26708;50.304;19.028;2024-03-17T07:45:36;98642.06;;;8.70;41.68
40982;BME280;26708;50.304;19.028;2024-03-17T07:47:50;98642.88;;;8.60;41.97
40982;BME280;26708;50.304;19.028;2024-03-17T07:49:55;98787.78;;;9.40;42.28
40982;BME280;26708;50.304;19.028;2024-03-17T07:52:06;98689.84;;;8.60;42.10
40982;BME280;26708;50.304;19.028;2024-03-17T07:54:11;98695.19;;;8.82;42.28
40982;BME280;26708;50.304;19.028;2024-03-17T07:56:19;98711.66;;;8.74;42.21
40982;BME280;26708;50.304;19.028;2024-03-17T07:58:26;98842.84;;;9.65;42.27
40982;BME280;26708;50.304;19.028;2024-03-17T08:00:31;98698.66;;;8.81;42.47
40982;BME280;26708;50.304;19.028;2024-03-17T08:02:35;98846.34;;;9.67;42.29
40982;BME280;26708;50.304;19.028;2024-03-17T08:04:41;98848.97;;;9.69;42.38
40982;BME280;26708;50.304;19.028;2024-03-17T08:06:45;98807.00;;;9.48;42.41
40982;BME280;26708;50.304;19.028;2024-03-17T08:08:50;98839.38;;;9.66;41.79
40982;BME280;26708;50.304;19.028;2024-03-17T08:10:57;98831.53;;;9.66;42.63
40982;BME280;26708;50.304;19.028;2024-03-17T08:13:02;98845.47;;;9.70;42.25
40982;BME280;26708;50.304;19.028;2024-03-17T08:15:10;98682.16;;;8.82;42.49
40982;BME280;26708;50.304;19.028;2024-03-17T08:17:16;98698.81;;;9.02;42.53
40982;BME280;26708;50.304;19.028;2024-03-17T08:19:20;98744.13;;;9.21;42.38
40982;BME280;26708;50.304;19.028;2024-03-17T08:21:24;98833.38;;;9.91;41.26
40982;BME280;26708;50.304;19.028;2024-03-17T08:23:32;98829.91;;;9.94;41.16
40982;BME280;26708;50.304;19.028;2024-03-17T08:25:37;98839.44;;;9.84;40.53
40982;BME280;26708;50.304;19.028;2024-03-17T08:27:42;98799.22;;;9.60;40.93
40982;BME280;26708;50.304;19.028;2024-03-17T08:29:57;98850.75;;;9.76;41.32
40982;BME280;26708;50.304;19.028;2024-03-17T08:32:11;98690.94;;;8.96;41.58
40982;BME280;26708;50.304;19.028;2024-03-17T08:34:16;98735.38;;;9.08;41.29
40982;BME280;26708;50.304;19.028;2024-03-17T08:36:22;98649.03;;;8.72;40.91
40982;BME280;26708;50.304;19.028;2024-03-17T08:38:37;98789.56;;;9.42;40.89
40982;BME280;26708;50.304;19.028;2024-03-17T08:43:05;98704.81;;;8.86;41.04
40982;BME280;26708;50.304;19.028;2024-03-17T08:45:19;98752.03;;;9.28;40.52
40982;BME280;26708;50.304;19.028;2024-03-17T08:47:37;98759.03;;;9.34;39.20
40982;BME280;26708;50.304;19.028;2024-03-17T08:49:43;98805.31;;;9.59;38.83
40982;BME280;26708;50.304;19.028;2024-03-17T08:51:47;98793.94;;;9.51;38.13
40982;BME280;26708;50.304;19.028;2024-03-17T08:53:51;98811.41;;;9.56;38.46
40982;BME280;26708;50.304;19.028;2024-03-17T08:55:58;98807.91;;;9.53;37.87
40982;BME280;26708;50.304;19.028;2024-03-17T08:58:03;98817.47;;;9.55;38.50
40982;BME280;26708;50.304;19.028;2024-03-17T09:00:06;98818.34;;;9.53;38.76
40982;BME280;26708;50.304;19.028;2024-03-17T09:02:15;98783.41;;;9.33;38.46
40982;BME280;26708;50.304;19.028;2024-03-17T09:04:21;98813.16;;;9.57;38.87
40982;BME280;26708;50.304;19.028;2024-03-17T09:06:25;98806.25;;;9.65;38.13
40982;BME280;26708;50.304;19.028;2024-03-17T09:08:31;98810.66;;;9.72;38.42
40982;BME280;26708;50.304;19.028;2024-03-17T09:10:39;98673.53;;;8.95;37.95
40982;BME280;26708;50.304;19.028;2024-03-17T09:12:41;98805.47;;;9.86;38.50
40982;BME280;26708;50.304;19.028;2024-03-17T09:14:49;98808.13;;;9.95;37.78
40982;BME280;26708;50.304;19.028;2024-03-17T09:16:54;98788.03;;;9.82;37.26
40982;BME280;26708;50.304;19.028;2024-03-17T09:19:02;98719.00;;;9.36;37.17
40982;BME280;26708;50.304;19.028;2024-03-17T09:21:08;98720.69;;;9.28;37.97
40982;BME280;26708;50.304;19.028;2024-03-17T09:23:14;98772.16;;;9.47;38.29
40982;BME280;26708;50.304;19.028;2024-03-17T09:25:16;98813.25;;;9.68;38.23
40982;BME280;26708;50.304;19.028;2024-03-17T09:27:21;98669.91;;;8.71;38.02
40982;BME280;26708;50.304;19.028;2024-03-17T09:29:27;98810.50;;;9.54;38.05
40982;BME280;26708;50.304;19.028;2024-03-17T09:31:31;98805.13;;;9.29;38.70
40982;BME280;26708;50.304;19.028;2024-03-17T09:33:37;98765.03;;;9.21;38.20
40982;BME280;26708;50.304;19.028;2024-03-17T09:35:52;98811.44;;;9.61;38.32
40982;BME280;26708;50.304;19.028;2024-03-17T09:37:57;98819.28;;;9.61;38.43
40982;BME280;26708;50.304;19.028;2024-03-17T09:40:00;98823.63;;;9.63;38.87
40982;BME280;26708;50.304;19.028;2024-03-17T09:42:17;98747.63;;;9.20;38.48
40982;BME280;26708;50.304;19.028;2024-03-17T09:44:22;98780.06;;;9.59;38.30
40982;BME280;26708;50.304;19.028;2024-03-17T09:46:28;98818.53;;;9.77;38.26
40982;BME280;26708;50.304;19.028;2024-03-17T09:48:34;98807.19;;;9.78;38.54
40982;BME280;26708;50.304;19.028;2024-03-17T09:50:51;98808.09;;;9.86;38.33
40982;BME280;26708;50.304;19.028;2024-03-17T09:56:51;98663.25;;;9.25;37.66
40982;BME280;26708;50.304;19.028;2024-03-17T09:58:59;98634.38;;;8.97;37.18
40982;BME280;26708;50.304;19.028;2024-03-17T10:01:08;98662.34;;;9.23;36.84
40982;BME280;26708;50.304;19.028;2024-03-17T10:03:44;98813.34;;;9.95;36.87
40982;BME280;26708;50.304;19.028;2024-03-17T10:06:01;98793.28;;;9.85;36.95
40982;BME280;26708;50.304;19.028;2024-03-17T10:08:04;98646.59;;;9.01;37.21
40982;BME280;26708;50.304;19.028;2024-03-17T10:10:13;98799.38;;;9.90;37.29
40982;BME280;26708;50.304;19.028;2024-03-17T10:12:27;98597.72;;;8.74;37.39
40982;BME280;26708;50.304;19.028;2024-03-17T10:15:00;98670.13;;;9.10;37.33
40982;BME280;26708;50.304;19.028;2024-03-17T10:17:07;98801.13;;;9.89;37.62
40982;BME280;26708;50.304;19.028;2024-03-17T10:19:25;98558.44;;;8.47;37.98
40982;BME280;26708;50.304;19.028;2024-03-17T10:21:49;98672.81;;;9.22;37.40
40982;BME280;26708;50.304;19.028;2024-03-17T10:24:10;98787.25;;;10.08;36.69
40982;BME280;26708;50.304;19.028;2024-03-17T10:26:30;98792.50;;;10.10;37.42
40982;BME280;26708;50.304;19.028;2024-03-17T10:28:33;98631.91;;;9.28;37.64
40982;BME280;26708;50.304;19.028;2024-03-17T10:31:19;98656.31;;;9.33;37.07
40982;BME280;26708;50.304;19.028;2024-03-17T10:39:26;98788.19;;;10.45;36.33
40982;BME280;26708;50.304;19.028;2024-03-17T10:41:38;98560.47;;;9.11;36.69
40982;BME280;26708;50.304;19.028;2024-03-17T10:46:21;98656.44;;;9.69;36.74
40982;BME280;26708;50.304;19.028;2024-03-17T10:48:35;98769.88;;;10.37;36.24
40982;BME280;26708;50.304;19.028;2024-03-17T10:50:50;98732.34;;;10.13;36.25
40982;BME280;26708;50.304;19.028;2024-03-17T10:55:42;98772.50;;;10.40;37.15
40982;BME280;26708;50.304;19.028;2024-03-17T10:58:04;98628.56;;;9.68;35.78
40982;BME280;26708;50.304;19.028;2024-03-17T11:00:21;98727.13;;;10.07;36.20
40982;BME280;26708;50.304;19.028;2024-03-17T11:02:32;98757.69;;;10.45;35.92
40982;BME280;26708;50.304;19.028;2024-03-17T11:04:36;98694.00;;;10.19;35.84
40982;BME280;26708;50.304;19.028;2024-03-17T11:06:42;98661.72;;;10.02;34.41
40982;BME280;26708;50.304;19.028;2024-03-17T11:08:53;98711.41;;;10.17;34.57
40982;BME280;26708;50.304;19.028;2024-03-17T11:10:58;98651.22;;;9.80;35.31
40982;BME280;26708;50.304;19.028;2024-03-17T11:13:04;98755.94;;;10.46;35.09
40982;BME280;26708;50.304;19.028;2024-03-17T11:15:36;98707.94;;;10.21;35.02
40982;BME280;26708;50.304;19.028;2024-03-17T11:17:49;98652.09;;;9.79;35.07
40982;BME280;26708;50.304;19.028;2024-03-17T11:20:15;98725.38;;;10.21;35.42
40982;BME280;26708;50.304;19.028;2024-03-17T11:22:42;98642.50;;;9.79;35.48
40982;BME280;26708;50.304;19.028;2024-03-17T11:24:49;98619.84;;;9.66;35.56
40982;BME280;26708;50.304;19.028;2024-03-17T11:26:57;98730.63;;;10.24;35.75
40982;BME280;26708;50.304;19.028;2024-03-17T11:29:01;98746.34;;;10.39;36.17
40982;BME280;26708;50.304;19.028;2024-03-17T11:34:38;98680.78;;;9.64;36.50